createdAt,value
2023-11-18T05:59:07.910Z,2.15
2023-11-18T06:02:07.994Z,3.04
2023-11-18T06:05:07.968Z,2.33
2023-11-18T06:08:07.748Z,1.14
2023-11-18T06:11:07.876Z,0.00
2023-11-18T06:14:07.763Z,0.00
2023-11-18T06:17:08.090Z,0.00
2023-11-18T06:20:07.889Z,0.00
2023-11-18T06:23:07.812Z,2.12
2023-11-18T06:26:07.686Z,0.91
2023-11-18T06:29:07.948Z,0.02
2023-11-18T06:32:07.799Z,0.25
2023-11-18T06:35:08.019Z,0.00
2023-11-18T06:38:07.645Z,0.00
2023-11-18T06:41:07.949Z,0.00
2023-11-18T06:44:07.768Z,0.00
2023-11-18T06:47:08.133Z,0.00
2023-11-18T06:50:07.871Z,1.80
2023-11-18T06:53:07.943Z,3.20
2023-11-18T06:56:07.787Z,0.97
2023-11-18T06:59:07.926Z,0.00
2023-11-18T07:02:07.978Z,0.00
2023-11-18T07:05:08.073Z,0.23
2023-11-18T07:08:07.708Z,1.64
2023-11-18T07:11:07.853Z,2.36
2023-11-18T07:14:07.898Z,3.55
2023-11-18T07:17:07.908Z,2.80
2023-11-18T07:20:07.828Z,0.41
2023-11-18T07:23:07.843Z,0.00
2023-11-18T07:26:07.736Z,0.00
2023-11-18T07:29:07.783Z,0.00
2023-11-18T07:32:07.716Z,0.00
2023-11-18T07:35:07.962Z,0.00
2023-11-18T07:38:07.851Z,0.00
2023-11-18T07:41:07.840Z,0.95
2023-11-18T07:44:07.768Z,0.05
2023-11-18T07:47:07.914Z,0.00
2023-11-18T07:50:07.810Z,0.76
2023-11-18T07:53:07.970Z,0.18
2023-11-18T07:56:07.864Z,1.11
2023-11-18T07:59:08.005Z,3.26
2023-11-18T08:02:07.832Z,3.23
2023-11-18T08:05:08.015Z,3.54
2023-11-18T08:08:07.825Z,3.82
2023-11-18T08:11:07.968Z,3.24
2023-11-18T08:14:07.808Z,3.54
2023-11-18T08:17:07.896Z,2.50
2023-11-18T08:20:07.741Z,2.61
2023-11-18T08:23:07.997Z,2.58
2023-11-18T08:26:07.767Z,2.96
2023-11-18T08:29:08.065Z,3.17
2023-11-18T08:32:07.761Z,3.45
2023-11-18T08:35:08.135Z,3.55
2023-11-18T08:38:07.807Z,2.97
2023-11-18T08:41:08.030Z,4.49
2023-11-18T08:44:18.331Z,4.17
2023-11-18T08:47:07.960Z,5.29
2023-11-18T08:50:07.780Z,5.20
2023-11-18T08:53:07.949Z,5.35
2023-11-18T08:56:07.806Z,5.18
2023-11-18T08:59:07.929Z,5.66
2023-11-18T09:02:07.723Z,3.74
2023-11-18T09:05:07.874Z,3.31
2023-11-18T09:08:07.809Z,4.72
2023-11-18T09:11:07.946Z,5.39
2023-11-18T09:14:07.881Z,6.75
2023-11-18T09:17:08.020Z,6.88
2023-11-18T09:20:07.805Z,7.38
2023-11-18T09:23:07.910Z,6.75
2023-11-18T09:26:07.864Z,6.59
2023-11-18T09:29:08.054Z,6.46
2023-11-18T09:32:07.938Z,6.10
2023-11-18T09:35:07.893Z,6.95
2023-11-18T09:38:07.897Z,6.16
2023-11-18T09:41:08.044Z,5.63
2023-11-18T09:44:07.838Z,6.33
2023-11-18T09:47:07.877Z,7.81
2023-11-18T09:50:07.701Z,8.27
2023-11-18T09:53:07.849Z,6.26
2023-11-18T09:56:07.698Z,6.36
2023-11-18T09:59:08.020Z,6.10
2023-11-18T10:02:07.899Z,8.20
2023-11-18T10:05:07.836Z,8.75
2023-11-18T10:08:07.751Z,7.84
2023-11-18T10:11:08.050Z,7.64
2023-11-18T10:14:07.769Z,7.87
2023-11-18T10:17:08.391Z,8.61
2023-11-18T10:20:07.877Z,9.38
2023-11-18T10:23:07.994Z,9.24
2023-11-18T10:26:07.786Z,8.25
2023-11-18T10:29:08.042Z,8.22
2023-11-18T10:32:07.883Z,8.85
2023-11-18T10:35:08.068Z,8.68
2023-11-18T10:38:07.764Z,8.32
2023-11-18T10:41:07.872Z,9.72
2023-11-18T10:44:07.883Z,10.60
2023-11-18T10:47:08.142Z,9.83
2023-11-18T10:50:07.954Z,10.41
2023-11-18T10:53:08.098Z,10.54
2023-11-18T10:56:07.813Z,9.03
2023-11-18T10:59:07.933Z,10.57
2023-11-18T11:02:07.897Z,8.71
2023-11-18T11:05:08.093Z,12.87
2023-11-18T11:08:08.028Z,11.94
2023-11-18T11:11:07.910Z,9.74
2023-11-18T11:14:07.847Z,11.17
2023-11-18T11:17:08.045Z,11.41
2023-11-18T11:20:07.848Z,8.76
2023-11-18T11:23:07.932Z,10.27
2023-11-18T11:26:07.814Z,10.69
2023-11-18T11:29:07.874Z,11.29
2023-11-18T11:32:07.857Z,8.14
2023-11-18T11:35:07.975Z,11.61
2023-11-18T11:38:07.994Z,9.68
2023-11-18T11:41:08.029Z,10.78
2023-11-18T11:44:07.781Z,8.71
2023-11-18T11:47:08.025Z,8.89
2023-11-18T11:50:07.835Z,8.53
2023-11-18T11:53:08.078Z,9.23
2023-11-18T11:56:07.878Z,9.89
2023-11-18T11:59:07.937Z,9.04
2023-11-18T12:02:07.843Z,8.68
2023-11-18T12:05:08.259Z,8.44
2023-11-18T12:08:07.856Z,10.02
2023-11-18T12:11:07.818Z,9.75
2023-11-18T12:14:07.898Z,8.54
2023-11-18T12:17:07.982Z,7.83
2023-11-18T12:20:07.857Z,9.30
2023-11-18T12:23:07.962Z,11.09
2023-11-18T12:26:07.859Z,11.29
2023-11-18T12:29:08.257Z,11.11
2023-11-18T12:32:07.832Z,9.55
2023-11-18T12:35:07.951Z,9.30
2023-11-18T12:38:07.955Z,6.27
2023-11-18T12:41:07.986Z,8.49
2023-11-18T12:44:08.006Z,8.47
2023-11-18T12:47:07.926Z,7.84
2023-11-18T12:50:07.913Z,6.85
2023-11-18T12:53:07.961Z,7.08
2023-11-18T12:56:07.966Z,9.51
2023-11-18T12:59:08.012Z,10.70
2023-11-18T13:02:07.927Z,9.50
2023-11-18T13:05:07.867Z,10.32
2023-11-18T13:08:07.808Z,10.46
2023-11-18T13:11:07.945Z,8.79
2023-11-18T13:14:07.877Z,8.52
2023-11-18T13:17:07.923Z,9.32
2023-11-18T13:20:07.946Z,9.70
2023-11-18T13:23:08.128Z,8.35
2023-11-18T13:26:07.892Z,7.54
2023-11-18T13:29:08.000Z,8.60
2023-11-18T13:32:07.800Z,7.89
2023-11-18T13:35:08.036Z,7.64
2023-11-18T13:38:07.792Z,9.01
2023-11-18T13:41:07.952Z,7.86
2023-11-18T13:44:07.810Z,5.82
2023-11-18T13:47:08.044Z,5.21
2023-11-18T13:50:07.850Z,7.35
2023-11-18T13:53:07.984Z,7.46
2023-11-18T13:56:07.896Z,6.61
2023-11-18T13:59:08.040Z,7.14
2023-11-18T14:02:07.884Z,8.11
2023-11-18T14:05:08.002Z,8.59
2023-11-18T14:08:07.920Z,7.41
2023-11-18T14:11:13.316Z,9.20
2023-11-18T14:14:07.879Z,9.83
2023-11-18T14:17:07.999Z,10.18
2023-11-18T14:20:07.803Z,11.92
2023-11-18T14:23:07.928Z,8.76
2023-11-18T14:26:07.773Z,9.16
2023-11-18T14:29:07.951Z,9.69
2023-11-18T14:32:08.008Z,8.41
2023-11-18T14:35:07.905Z,6.63
2023-11-18T14:38:08.118Z,7.77
2023-11-18T14:41:07.952Z,7.45
2023-11-18T14:44:07.900Z,9.19
2023-11-18T14:47:07.967Z,8.43
2023-11-18T14:50:07.997Z,8.07
2023-11-18T14:53:08.090Z,6.04
2023-11-18T14:56:07.913Z,7.59
2023-11-18T14:59:07.957Z,6.45
2023-11-18T15:02:07.989Z,6.18
2023-11-18T15:05:08.117Z,6.42
2023-11-18T15:08:07.921Z,5.79
2023-11-18T15:11:07.932Z,6.65
2023-11-18T15:14:07.890Z,6.30
2023-11-18T15:17:08.000Z,7.91
2023-11-18T15:20:07.878Z,9.54
2023-11-18T15:23:08.029Z,7.95
2023-11-18T15:26:07.899Z,8.16
2023-11-18T15:29:08.052Z,7.51
2023-11-18T15:32:07.894Z,7.78
2023-11-18T15:35:08.225Z,9.27
2023-11-18T15:38:08.001Z,9.12
2023-11-18T15:41:08.037Z,8.96
2023-11-18T15:44:07.898Z,9.75
2023-11-18T15:47:07.908Z,9.74
2023-11-18T15:50:07.997Z,7.08
2023-11-18T15:53:08.294Z,6.66
2023-11-18T15:56:07.864Z,4.85
2023-11-18T15:59:08.052Z,6.81
2023-11-18T16:02:07.727Z,6.13
2023-11-18T16:05:08.084Z,5.39
2023-11-18T16:08:07.806Z,6.37
2023-11-18T16:11:07.973Z,6.65
2023-11-18T16:14:07.855Z,7.39
2023-11-18T16:17:08.125Z,7.75
2023-11-18T16:20:07.964Z,7.67
2023-11-18T16:23:08.040Z,5.95
2023-11-18T16:26:08.085Z,7.36
2023-11-18T16:29:08.052Z,5.36
2023-11-18T16:32:07.956Z,5.66
2023-11-18T16:35:08.029Z,6.35
2023-11-18T16:38:08.091Z,7.66
2023-11-18T16:41:08.125Z,7.06
2023-11-18T16:44:07.877Z,5.69
2023-11-18T16:47:08.192Z,5.45
2023-11-18T16:50:08.017Z,6.79
2023-11-18T16:53:08.196Z,5.50
2023-11-18T16:56:07.800Z,6.19
2023-11-18T16:59:07.983Z,7.08
2023-11-18T17:02:07.819Z,8.24
2023-11-18T17:05:07.943Z,6.76
2023-11-18T17:08:09.040Z,8.21
2023-11-18T17:11:08.064Z,9.92
2023-11-18T17:14:07.992Z,8.36
2023-11-18T17:17:08.125Z,7.55
2023-11-18T17:20:07.852Z,6.25
2023-11-18T17:23:08.009Z,7.54
2023-11-18T17:26:07.897Z,7.26
2023-11-18T17:29:08.196Z,8.38
2023-11-18T17:32:07.971Z,8.08
2023-11-18T17:35:07.998Z,9.19
2023-11-18T17:38:07.793Z,8.25
2023-11-18T17:41:07.967Z,8.95
2023-11-18T17:44:07.852Z,9.10
2023-11-18T17:47:08.100Z,8.24
2023-11-18T17:50:07.793Z,7.65
2023-11-18T17:53:08.064Z,9.04
2023-11-18T17:56:07.912Z,6.99
2023-11-18T17:59:08.202Z,8.48
2023-11-18T18:02:08.064Z,8.73
2023-11-18T18:05:08.177Z,8.15
2023-11-18T18:08:07.868Z,7.72
2023-11-18T18:11:08.091Z,8.42
2023-11-18T18:14:07.910Z,10.26
2023-11-18T18:17:08.070Z,11.05
2023-11-18T18:20:08.724Z,9.67
2023-11-18T18:23:08.105Z,10.59
2023-11-18T18:26:07.890Z,12.95
2023-11-18T18:29:08.071Z,11.72
2023-11-18T18:32:07.876Z,11.35
2023-11-18T18:35:07.930Z,11.15
2023-11-18T18:38:07.832Z,11.95
2023-11-18T18:41:07.912Z,13.74
2023-11-18T18:44:07.848Z,11.26
2023-11-18T18:47:08.122Z,9.36
2023-11-18T18:50:07.977Z,12.12
2023-11-18T18:53:07.968Z,11.81
2023-11-18T18:56:07.919Z,11.27
2023-11-18T18:59:08.022Z,13.06
2023-11-18T19:02:08.040Z,13.11
2023-11-18T19:05:08.057Z,16.05
2023-11-18T19:08:08.010Z,16.83
